sensor_id;sensor_type;location;lat;lon;timestamp;pressure;altitude;pressure_sealevel;temperature;humidity
4469;BME280;2247;42.666;23.292;2023-10-08T13:06:04;94469.38;;;23.21;34.47
4469;BME280;2247;42.666;23.292;2023-10-08T13:08:36;94465.00;;;23.32;33.54
4469;BME280;2247;42.666;23.292;2023-10-08T13:11:04;94460.72;;;23.46;33.46
4469;BME280;2247;42.666;23.292;2023-10-08T13:13:31;94459.88;;;23.58;33.57
4469;BME280;2247;42.666;23.292;2023-10-08T13:15:59;94453.50;;;23.66;33.42
4469;BME280;2247;42.666;23.292;2023-10-08T13:18:29;94450.28;;;23.76;33.01
4469;BME280;2247;42.666;23.292;2023-10-08T13:20:58;94457.38;;;23.84;32.91
4469;BME280;2247;42.666;23.292;2023-10-08T13:23:27;94454.06;;;23.91;33.64
4469;BME280;2247;42.666;23.292;2023-10-08T13:26:11;94439.09;;;23.93;33.93
4469;BME280;2247;42.666;23.292;2023-10-08T13:28:43;94442.31;;;23.99;32.90
4469;BME280;2247;42.666;23.292;2023-10-08T13:31:10;94443.97;;;24.07;32.57
4469;BME280;2247;42.666;23.292;2023-10-08T13:33:38;94402.97;;;23.75;33.61
4469;BME280;2247;42.666;23.292;2023-10-08T13:36:06;94440.03;;;24.01;33.65
4469;BME280;2247;42.666;23.292;2023-10-08T13:38:41;94432.16;;;24.12;32.97
4469;BME280;2247;42.666;23.292;2023-10-08T13:41:08;94438.22;;;24.24;33.08
4469;BME280;2247;42.666;23.292;2023-10-08T13:43:42;94442.19;;;24.30;35.02
4469;BME280;2247;42.666;23.292;2023-10-08T13:46:12;94445.16;;;24.25;31.90
4469;BME280;2247;42.666;23.292;2023-10-08T13:48:40;94440.75;;;24.37;31.92
4469;BME280;2247;42.666;23.292;2023-10-08T13:51:08;94443.53;;;24.21;32.24
4469;BME280;2247;42.666;23.292;2023-10-08T13:53:41;94438.13;;;24.21;32.10
4469;BME280;2247;42.666;23.292;2023-10-08T13:56:11;94445.06;;;24.22;33.55
4469;BME280;2247;42.666;23.292;2023-10-08T13:58:39;94438.13;;;24.21;33.82
4469;BME280;2247;42.666;23.292;2023-10-08T14:01:12;94436.47;;;24.16;33.60
4469;BME280;2247;42.666;23.292;2023-10-08T14:03:48;94434.78;;;24.27;33.31
4469;BME280;2247;42.666;23.292;2023-10-08T14:06:18;94436.13;;;24.37;33.20
4469;BME280;2247;42.666;23.292;2023-10-08T14:08:47;94437.06;;;24.45;33.06
4469;BME280;2247;42.666;23.292;2023-10-08T14:11:18;94438.75;;;24.53;32.13
4469;BME280;2247;42.666;23.292;2023-10-08T15:01:21;94464.56;;;22.83;41.80
4469;BME280;2247;42.666;23.292;2023-10-08T15:03:51;94444.47;;;22.76;41.56
4469;BME280;2247;42.666;23.292;2023-10-08T15:06:18;94461.28;;;22.89;48.35
4469;BME280;2247;42.666;23.292;2023-10-08T15:08:46;94456.34;;;22.91;40.29
4469;BME280;2247;42.666;23.292;2023-10-08T15:11:13;94453.06;;;22.98;37.07
4469;BME280;2247;42.666;23.292;2023-10-08T15:13:40;94471.88;;;22.98;39.48
4469;BME280;2247;42.666;23.292;2023-10-08T15:16:11;94472.59;;;22.95;38.54
4469;BME280;2247;42.666;23.292;2023-10-08T15:18:40;94483.50;;;23.02;39.21
4469;BME280;2247;42.666;23.292;2023-10-08T15:21:09;94480.91;;;23.05;39.04
4469;BME280;2247;42.666;23.292;2023-10-08T15:23:37;94475.97;;;23.07;37.39
4469;BME280;2247;42.666;23.292;2023-10-08T15:26:03;94483.16;;;23.03;37.18
4469;BME280;2247;42.666;23.292;2023-10-08T15:28:31;94484.03;;;23.07;36.98
4469;BME280;2247;42.666;23.292;2023-10-08T15:31:01;94491.31;;;23.07;36.74
4469;BME280;2247;42.666;23.292;2023-10-08T15:33:29;94499.38;;;23.07;40.68
4469;BME280;2247;42.666;23.292;2023-10-08T15:35:59;94502.69;;;23.16;43.34
4469;BME280;2247;42.666;23.292;2023-10-08T15:38:26;94505.72;;;23.14;37.30
4469;BME280;2247;42.666;23.292;2023-10-08T15:40:53;94511.94;;;23.18;39.04
4469;BME280;2247;42.666;23.292;2023-10-08T15:43:21;94512.06;;;23.22;38.24
4469;BME280;2247;42.666;23.292;2023-10-08T15:45:48;94512.84;;;23.23;39.47
4469;BME280;2247;42.666;23.292;2023-10-08T15:48:17;94525.13;;;23.24;38.02
4469;BME280;2247;42.666;23.292;2023-10-08T15:50:45;94518.22;;;23.23;38.34
4469;BME280;2247;42.666;23.292;2023-10-08T15:53:15;94537.13;;;23.26;38.20
4469;BME280;2247;42.666;23.292;2023-10-08T15:56:01;94528.59;;;23.24;37.59
4469;BME280;2247;42.666;23.292;2023-10-08T15:59:03;94530.31;;;23.16;37.94
4469;BME280;2247;42.666;23.292;2023-10-08T16:01:44;94538.16;;;23.22;38.66
4469;BME280;2247;42.666;23.292;2023-10-08T16:04:15;94539.19;;;23.17;38.46
4469;BME280;2247;42.666;23.292;2023-10-08T16:06:42;94536.94;;;23.19;38.27
4469;BME280;2247;42.666;23.292;2023-10-08T16:09:12;94553.59;;;23.25;38.60
4469;BME280;2247;42.666;23.292;2023-10-08T16:11:40;94549.69;;;23.22;38.60
4469;BME280;2247;42.666;23.292;2023-10-08T16:14:07;94551.34;;;23.27;40.15
4469;BME280;2247;42.666;23.292;2023-10-08T16:16:35;94535.72;;;23.16;38.85
4469;BME280;2247;42.666;23.292;2023-10-08T16:19:02;94507.78;;;23.05;36.65
4469;BME280;2247;42.666;23.292;2023-10-08T16:21:29;94555.69;;;23.15;38.25
4469;BME280;2247;42.666;23.292;2023-10-08T16:23:58;94559.56;;;23.18;37.66
4469;BME280;2247;42.666;23.292;2023-10-08T16:26:27;94553.41;;;23.17;37.12
4469;BME280;2247;42.666;23.292;2023-10-08T16:28:55;94550.53;;;23.10;36.84
4469;BME280;2247;42.666;23.292;2023-10-08T16:31:21;94550.91;;;23.09;36.71
4469;BME280;2247;42.666;23.292;2023-10-08T16:33:48;94562.69;;;23.04;36.61
4469;BME280;2247;42.666;23.292;2023-10-08T16:36:15;94571.00;;;22.99;36.80
4469;BME280;2247;42.666;23.292;2023-10-08T16:38:44;94568.22;;;22.96;37.64
4469;BME280;2247;42.666;23.292;2023-10-08T16:41:12;94570.19;;;22.83;37.31
4469;BME280;2247;42.666;23.292;2023-10-08T16:43:40;94575.91;;;22.82;37.25
4469;BME280;2247;42.666;23.292;2023-10-08T16:46:07;94579.38;;;22.70;37.40
4469;BME280;2247;42.666;23.292;2023-10-08T16:48:36;94539.19;;;22.46;38.02
4469;BME280;2247;42.666;23.292;2023-10-08T16:51:03;94583.88;;;22.78;37.63
4469;BME280;2247;42.666;23.292;2023-10-08T16:53:30;94574.94;;;22.74;37.85
4469;BME280;2247;42.666;23.292;2023-10-08T16:55:57;94570.94;;;22.56;37.70
4469;BME280;2247;42.666;23.292;2023-10-08T16:58:25;94584.56;;;22.63;37.90
4469;BME280;2247;42.666;23.292;2023-10-08T17:00:53;94587.94;;;22.60;38.17
4469;BME280;2247;42.666;23.292;2023-10-08T17:03:20;94597.03;;;22.55;39.15
4469;BME280;2247;42.666;23.292;2023-10-08T17:05:49;94594.44;;;22.59;38.74
4469;BME280;2247;42.666;23.292;2023-10-08T17:08:16;94608.47;;;22.52;38.97
4469;BME280;2247;42.666;23.292;2023-10-08T17:10:45;94602.97;;;22.61;41.69
4469;BME280;2247;42.666;23.292;2023-10-08T17:13:13;94606.97;;;22.67;40.10
4469;BME280;2247;42.666;23.292;2023-10-08T17:15:40;94614.47;;;22.73;45.27
4469;BME280;2247;42.666;23.292;2023-10-08T17:18:09;94612.97;;;22.76;50.01
4469;BME280;2247;42.666;23.292;2023-10-08T17:20:37;94618.81;;;22.78;48.91
4469;BME280;2247;42.666;23.292;2023-10-08T17:23:04;94621.03;;;22.76;42.77
4469;BME280;2247;42.666;23.292;2023-10-08T17:25:32;94623.94;;;22.71;46.68
4469;BME280;2247;42.666;23.292;2023-10-08T17:28:00;94625.78;;;22.67;42.44
4469;BME280;2247;42.666;23.292;2023-10-08T17:30:27;94626.09;;;22.65;44.10
4469;BME280;2247;42.666;23.292;2023-10-08T17:32:57;94624.09;;;22.62;42.32
4469;BME280;2247;42.666;23.292;2023-10-08T17:35:26;94623.88;;;22.55;44.47
4469;BME280;2247;42.666;23.292;2023-10-08T17:37:53;94632.84;;;22.59;50.90
4469;BME280;2247;42.666;23.292;2023-10-08T17:40:21;94626.94;;;22.54;45.40
4469;BME280;2247;42.666;23.292;2023-10-08T17:42:50;94627.59;;;22.51;44.97
4469;BME280;2247;42.666;23.292;2023-10-08T17:45:17;94639.91;;;22.52;46.38
4469;BME280;2247;42.666;23.292;2023-10-08T17:47:48;94627.25;;;22.52;50.96
4469;BME280;2247;42.666;23.292;2023-10-08T17:50:17;94632.31;;;22.54;51.89
4469;BME280;2247;42.666;23.292;2023-10-08T17:52:46;94628.84;;;22.53;47.88
4469;BME280;2247;42.666;23.292;2023-10-08T17:55:16;94622.81;;;22.44;46.32
4469;BME280;2247;42.666;23.292;2023-10-08T17:57:46;94633.88;;;22.43;47.99
4469;BME280;2247;42.666;23.292;2023-10-08T18:00:14;94631.00;;;22.23;47.98
4469;BME280;2247;42.666;23.292;2023-10-08T18:02:44;94627.31;;;22.16;48.58
4469;BME280;2247;42.666;23.292;2023-10-08T18:05:11;94631.91;;;22.15;48.22
4469;BME280;2247;42.666;23.292;2023-10-08T18:07:42;94635.50;;;22.07;48.58
4469;BME280;2247;42.666;23.292;2023-10-08T18:10:12;94632.56;;;21.88;47.70
4469;BME280;2247;42.666;23.292;2023-10-08T18:12:42;94632.34;;;21.81;49.82
4469;BME280;2247;42.666;23.292;2023-10-08T18:15:10;94622.16;;;21.74;46.55
4469;BME280;2247;42.666;23.292;2023-10-08T18:17:41;94642.19;;;21.77;49.46
4469;BME280;2247;42.666;23.292;2023-10-08T18:20:10;94633.34;;;21.76;47.60
4469;BME280;2247;42.666;23.292;2023-10-08T18:22:38;94631.88;;;21.67;49.16
4469;BME280;2247;42.666;23.292;2023-10-08T18:25:06;94620.13;;;21.47;49.21
4469;BME280;2247;42.666;23.292;2023-10-08T18:27:37;94641.50;;;21.55;47.42
4469;BME280;2247;42.666;23.292;2023-10-08T18:30:05;94645.75;;;21.56;47.06
4469;BME280;2247;42.666;23.292;2023-10-08T18:32:33;94658.72;;;21.67;46.29
4469;BME280;2247;42.666;23.292;2023-10-08T18:35:02;94641.50;;;21.68;47.87
4469;BME280;2247;42.666;23.292;2023-10-08T18:37:32;94656.94;;;21.71;46.55
4469;BME280;2247;42.666;23.292;2023-10-08T18:40:00;94651.78;;;21.66;48.15
4469;BME280;2247;42.666;23.292;2023-10-08T18:42:27;94655.81;;;21.72;51.24
4469;BME280;2247;42.666;23.292;2023-10-08T18:44:57;94668.09;;;21.73;48.00
4469;BME280;2247;42.666;23.292;2023-10-08T18:47:25;94667.22;;;21.69;50.73
4469;BME280;2247;42.666;23.292;2023-10-08T18:49:53;94666.19;;;21.61;48.18
4469;BME280;2247;42.666;23.292;2023-10-08T18:52:20;94668.78;;;21.70;49.37
4469;BME280;2247;42.666;23.292;2023-10-08T18:54:50;94675.16;;;21.77;50.36
4469;BME280;2247;42.666;23.292;2023-10-08T18:57:17;94670.22;;;21.67;47.60
4469;BME280;2247;42.666;23.292;2023-10-08T18:59:44;94690.56;;;21.68;47.23
4469;BME280;2247;42.666;23.292;2023-10-08T19:02:13;94696.94;;;21.64;49.51
4469;BME280;2247;42.666;23.292;2023-10-08T19:04:40;94695.38;;;21.63;49.57
4469;BME280;2247;42.666;23.292;2023-10-08T19:07:08;94709.56;;;21.63;49.46
4469;BME280;2247;42.666;23.292;2023-10-08T19:09:37;94718.41;;;21.64;50.31
4469;BME280;2247;42.666;23.292;2023-10-08T19:12:04;94715.50;;;21.69;46.67
4469;BME280;2247;42.666;23.292;2023-10-08T19:14:32;94717.41;;;21.68;46.49
4469;BME280;2247;42.666;23.292;2023-10-08T19:16:59;94717.41;;;21.68;46.06
4469;BME280;2247;42.666;23.292;2023-10-08T19:19:29;94726.09;;;21.65;46.04
4469;BME280;2247;42.666;23.292;2023-10-08T19:21:59;94718.53;;;21.67;46.24
4469;BME280;2247;42.666;23.292;2023-10-08T19:24:27;94708.09;;;21.53;46.43
4469;BME280;2247;42.666;23.292;2023-10-08T19:26:54;94721.78;;;21.73;50.25
4469;BME280;2247;42.666;23.292;2023-10-08T19:29:22;94712.13;;;21.59;46.69
4469;BME280;2247;42.666;23.292;2023-10-08T19:31:50;94735.63;;;21.75;45.92
4469;BME280;2247;42.666;23.292;2023-10-08T19:34:19;94738.44;;;21.78;46.59
4469;BME280;2247;42.666;23.292;2023-10-08T19:36:47;94728.69;;;21.74;48.10
4469;BME280;2247;42.666;23.292;2023-10-08T19:39:15;94731.84;;;21.76;49.05
4469;BME280;2247;42.666;23.292;2023-10-08T19:41:42;94739.81;;;21.84;48.00
4469;BME280;2247;42.666;23.292;2023-10-08T19:44:08;94735.22;;;21.85;47.53
4469;BME280;2247;42.666;23.292;2023-10-08T19:46:36;94741.47;;;21.89;47.82
4469;BME280;2247;42.666;23.292;2023-10-08T19:49:03;94742.59;;;21.88;48.45
4469;BME280;2247;42.666;23.292;2023-10-08T19:51:33;94742.72;;;21.91;46.68
4469;BME280;2247;42.666;23.292;2023-10-08T19:54:01;94746.06;;;21.88;48.31
4469;BME280;2247;42.666;23.292;2023-10-08T19:56:29;94746.84;;;21.89;49.98
4469;BME280;2247;42.666;23.292;2023-10-08T19:58:56;94748.19;;;21.83;48.33
4469;BME280;2247;42.666;23.292;2023-10-08T20:01:25;94753.66;;;21.86;48.75
4469;BME280;2247;42.666;23.292;2023-10-08T20:03:52;94754.44;;;21.87;50.74
4469;BME280;2247;42.666;23.292;2023-10-08T20:06:19;94751.75;;;21.87;48.79
4469;BME280;2247;42.666;23.292;2023-10-08T20:08:49;94739.44;;;21.86;50.19
4469;BME280;2247;42.666;23.292;2023-10-08T20:16:31;94728.94;;;21.81;52.38
4469;BME280;2247;42.666;23.292;2023-10-08T20:18:58;94740.78;;;21.80;50.50
4469;BME280;2247;42.666;23.292;2023-10-08T20:21:30;94756.75;;;21.97;48.97
4469;BME280;2247;42.666;23.292;2023-10-08T20:23:58;94756.25;;;21.95;47.75
4469;BME280;2247;42.666;23.292;2023-10-08T20:26:25;94755.38;;;21.91;49.43
4469;BME280;2247;42.666;23.292;2023-10-08T20:28:57;94757.03;;;21.95;51.46
4469;BME280;2247;42.666;23.292;2023-10-08T21:01:30;94776.34;;;21.23;49.19
4469;BME280;2247;42.666;23.292;2023-10-08T21:03:58;94778.13;;;21.19;49.93
4469;BME280;2247;42.666;23.292;2023-10-08T21:06:26;94800.38;;;21.11;49.06
4469;BME280;2247;42.666;23.292;2023-10-08T21:08:53;94787.50;;;21.04;50.20
4469;BME280;2247;42.666;23.292;2023-10-08T21:11:20;94792.34;;;21.11;49.95
4469;BME280;2247;42.666;23.292;2023-10-08T21:13:48;94794.44;;;21.05;49.60
4469;BME280;2247;42.666;23.292;2023-10-08T21:16:16;94797.53;;;21.16;51.99
4469;BME280;2247;42.666;23.292;2023-10-08T21:18:45;94796.75;;;21.15;49.74
4469;BME280;2247;42.666;23.292;2023-10-08T21:21:17;94796.75;;;21.15;51.13
4469;BME280;2247;42.666;23.292;2023-10-08T21:23:48;94790.97;;;21.05;49.47
4469;BME280;2247;42.666;23.292;2023-10-08T21:26:17;94800.31;;;20.99;49.59
4469;BME280;2247;42.666;23.292;2023-10-08T21:28:44;94807.31;;;21.12;50.89
4469;BME280;2247;42.666;23.292;2023-10-08T21:31:11;94804.28;;;21.22;49.12
4469;BME280;2247;42.666;23.292;2023-10-08T21:33:38;94795.91;;;21.23;50.35
4469;BME280;2247;42.666;23.292;2023-10-08T21:36:10;94796.63;;;21.33;49.34
4469;BME280;2247;42.666;23.292;2023-10-08T21:38:38;94800.75;;;21.30;49.30
4469;BME280;2247;42.666;23.292;2023-10-08T21:41:05;94806.81;;;21.39;48.17
4469;BME280;2247;42.666;23.292;2023-10-08T21:43:33;94805.06;;;21.43;48.69
4469;BME280;2247;42.666;23.292;2023-10-08T21:46:01;94811.88;;;21.41;47.95
4469;BME280;2247;42.666;23.292;2023-10-08T21:48:28;94810.19;;;21.36;48.18
4469;BME280;2247;42.666;23.292;2023-10-08T21:50:55;94811.47;;;21.30;48.52
4469;BME280;2247;42.666;23.292;2023-10-08T21:53:23;94816.25;;;21.25;50.42
4469;BME280;2247;42.666;23.292;2023-10-08T21:55:51;94818.59;;;21.26;50.09
4469;BME280;2247;42.666;23.292;2023-10-08T21:58:18;94824.97;;;21.21;50.17
4469;BME280;2247;42.666;23.292;2023-10-08T22:00:45;94837.59;;;21.12;49.46
4469;BME280;2247;42.666;23.292;2023-10-08T22:03:12;94838.38;;;21.13;49.80
4469;BME280;2247;42.666;23.292;2023-10-08T22:05:40;94824.72;;;21.06;49.73
4469;BME280;2247;42.666;23.292;2023-10-08T22:08:10;94828.13;;;21.15;50.32
4469;BME280;2247;42.666;23.292;2023-10-08T22:10:40;94831.41;;;21.20;50.25
4469;BME280;2247;42.666;23.292;2023-10-08T22:13:08;94825.91;;;21.17;50.23
4469;BME280;2247;42.666;23.292;2023-10-08T22:15:36;94825.53;;;21.27;50.37
4469;BME280;2247;42.666;23.292;2023-10-08T22:18:11;94830.44;;;21.25;50.57
4469;BME280;2247;42.666;23.292;2023-10-08T22:20:52;94824.69;;;21.35;48.65
4469;BME280;2247;42.666;23.292;2023-10-08T22:23:20;94814.50;;;21.29;49.15
4469;BME280;2247;42.666;23.292;2023-10-08T22:25:53;94822.53;;;21.29;49.70
4469;BME280;2247;42.666;23.292;2023-10-08T22:28:21;94801.63;;;21.13;50.64
4469;BME280;2247;42.666;23.292;2023-10-08T22:30:50;94826.66;;;21.26;49.63
4469;BME280;2247;42.666;23.292;2023-10-08T22:33:21;94825.84;;;21.26;49.94
4469;BME280;2247;42.666;23.292;2023-10-08T22:35:51;94822.97;;;21.31;50.24
4469;BME280;2247;42.666;23.292;2023-10-08T22:38:19;94805.84;;;21.23;48.82
4469;BME280;2247;42.666;23.292;2023-10-08T22:40:48;94815.53;;;21.36;49.91
4469;BME280;2247;42.666;23.292;2023-10-08T22:43:37;94831.63;;;21.36;48.81
4469;BME280;2247;42.666;23.292;2023-10-08T22:46:06;94829.53;;;21.21;50.05
4469;BME280;2247;42.666;23.292;2023-10-08T22:48:34;94838.91;;;21.06;49.72
4469;BME280;2247;42.666;23.292;2023-10-08T22:51:09;94833.84;;;21.05;50.08
4469;BME280;2247;42.666;23.292;2023-10-08T22:53:37;94830.81;;;21.15;49.41
4469;BME280;2247;42.666;23.292;2023-10-08T22:56:07;94829.22;;;21.14;49.95
4469;BME280;2247;42.666;23.292;2023-10-08T22:58:37;94836.69;;;21.08;50.04
4469;BME280;2247;42.666;23.292;2023-10-08T23:01:09;94841.56;;;21.06;51.39
4469;BME280;2247;42.666;23.292;2023-10-08T23:03:38;94843.19;;;20.99;50.88
4469;BME280;2247;42.666;23.292;2023-10-08T23:06:05;94848.09;;;20.97;50.56
4469;BME280;2247;42.666;23.292;2023-10-08T23:08:32;94853.75;;;20.95;50.68
4469;BME280;2247;42.666;23.292;2023-10-08T23:11:00;94862.00;;;20.90;51.33
4469;BME280;2247;42.666;23.292;2023-10-08T23:13:27;94861.72;;;20.83;51.20
4469;BME280;2247;42.666;23.292;2023-10-08T23:15:57;94852.91;;;20.82;50.45
4469;BME280;2247;42.666;23.292;2023-10-08T23:18:26;94857.34;;;20.78;50.87
4469;BME280;2247;42.666;23.292;2023-10-08T23:20:56;94850.78;;;20.67;51.04
4469;BME280;2247;42.666;23.292;2023-10-08T23:23:25;94854.56;;;20.66;50.88
4469;BME280;2247;42.666;23.292;2023-10-08T23:25:52;94859.59;;;20.68;51.27
4469;BME280;2247;42.666;23.292;2023-10-08T23:28:21;94861.66;;;20.62;51.18
4469;BME280;2247;42.666;23.292;2023-10-08T23:30:48;94873.47;;;20.61;52.17
4469;BME280;2247;42.666;23.292;2023-10-08T23:33:18;94877.28;;;20.60;51.69
4469;BME280;2247;42.666;23.292;2023-10-08T23:35:47;94862.78;;;20.61;51.54
4469;BME280;2247;42.666;23.292;2023-10-08T23:38:14;94872.09;;;20.55;51.63
4469;BME280;2247;42.666;23.292;2023-10-08T23:40:57;94872.38;;;20.62;51.41
4469;BME280;2247;42.666;23.292;2023-10-08T23:43:36;94860.44;;;20.60;50.84
4469;BME280;2247;42.666;23.292;2023-10-08T23:46:06;94855.41;;;20.58;51.03
4469;BME280;2247;42.666;23.292;2023-10-08T23:48:38;94866.91;;;20.50;51.09
4469;BME280;2247;42.666;23.292;2023-10-08T23:51:18;94870.56;;;20.46;51.40
4469;BME280;2247;42.666;23.292;2023-10-08T23:53:48;94865.34;;;20.49;51.17
4469;BME280;2247;42.666;23.292;2023-10-08T23:56:20;94863.94;;;20.43;51.01
4469;BME280;2247;42.666;23.292;2023-10-08T23:58:53;94830.44;;;20.20;51.35
